6VA3 weather

Chippenham Hospital Heliport
Richmond, Virginia, United States

Public forecast

Using degrees Fahrenheit for public forecast. Weather courtesy of forecast.io.

Closest aviation weather report (METAR) to Chippenham Hospital Heliport

Closest report is Chesterfield County Airport, 7.0 nm (13.0 km) S. Retrieved 2020/07/12 18:56 UTC (13 minutes ago):

KFCI 121856Z AUTO 25009KT 10SM FEW075 32/15 RMK AO2 SLPNO T03220150

Closest aviation forecast (TAF) to Chippenham Hospital Heliport

Closest forecast is Richmond International Airport, 9.9 nm (18.4 km) E. Retrieved 2020/07/12 18:33 UTC (36 minutes ago):

TAF KRIC 121730Z 1218/1318 16009KT P6SM SCT050 FM130200 VRB03KT P6SM SCT080 BKN150 FM131500 25007KT P6SM BKN070